South Plainfield, New Jersey
Current Conditions -  °F | °C
As of 10:15 AM on Wednesday 22 Oct 2014 (Local Time) from KLDJ Reporting Station
Drizzle Drizzle  
Wind Chill: 58°   Ceiling: 1200
Heat Index: 58°   Visibility: 7mi
Dew Point: 55°   Wind: 9mph
Humidity: 91%   Direction: 50°NE
Pressure: 29.95"   Gusts: NA
Location:  40.58°N, 74.42°W
Report Text: KLDJ 221415Z AUTO 05008KT 7SM DZ BKN012 OVC018 15/13 A2995 RMK AO2 T01450130
Loading
Personal Weather Stations






























Interactive Weather Map
Tropical Storm Tracking
New forecast layout! Learn more

10-Day Weather Forecast

Advertisements
Track Severe Weather on mobile